sensor_id;sensor_type;location;lat;lon;timestamp;pressure;altitude;pressure_sealevel;temperature;humidity
64544;BME280;50936;51.660;5.616;2022-09-01T00:00:03;101768.25;;;16.61;63.07
64544;BME280;50936;51.660;5.616;2022-09-01T00:02:35;101765.78;;;16.58;63.25
64544;BME280;50936;51.660;5.616;2022-09-01T00:05:03;101756.81;;;16.55;63.58
64544;BME280;50936;51.660;5.616;2022-09-01T00:07:34;101756.81;;;16.55;64.47
64544;BME280;50936;51.660;5.616;2022-09-01T00:10:04;101760.81;;;16.51;64.28
64544;BME280;50936;51.660;5.616;2022-09-01T00:12:33;101759.94;;;16.51;64.96
64544;BME280;50936;51.660;5.616;2022-09-01T00:15:01;101758.81;;;16.53;64.89
64544;BME280;50936;51.660;5.616;2022-09-01T00:17:28;101758.81;;;16.53;64.90
64544;BME280;50936;51.660;5.616;2022-09-01T00:19:56;101757.72;;;16.56;65.06
64544;BME280;50936;51.660;5.616;2022-09-01T00:22:23;101758.34;;;16.60;65.47
64544;BME280;50936;51.660;5.616;2022-09-01T00:24:50;101758.34;;;16.60;66.37
64544;BME280;50936;51.660;5.616;2022-09-01T00:27:17;101760.31;;;16.58;66.46
64544;BME280;50936;51.660;5.616;2022-09-01T00:29:44;101760.31;;;16.58;65.97
64544;BME280;50936;51.660;5.616;2022-09-01T00:32:11;101765.00;;;16.55;66.54
64544;BME280;50936;51.660;5.616;2022-09-01T00:34:39;101764.28;;;16.53;66.29
64544;BME280;50936;51.660;5.616;2022-09-01T00:37:06;101759.09;;;16.50;66.90
64544;BME280;50936;51.660;5.616;2022-09-01T00:39:34;101757.34;;;16.49;66.92
64544;BME280;50936;51.660;5.616;2022-09-01T00:42:01;101753.13;;;16.45;67.46
64544;BME280;50936;51.660;5.616;2022-09-01T00:44:29;101752.63;;;16.40;67.32
64544;BME280;50936;51.660;5.616;2022-09-01T00:46:58;101754.72;;;16.36;68.03
64544;BME280;50936;51.660;5.616;2022-09-01T00:49:27;101754.22;;;16.31;68.04
64544;BME280;50936;51.660;5.616;2022-09-01T00:52:10;101744.66;;;16.26;68.43
64544;BME280;50936;51.660;5.616;2022-09-01T00:54:44;101746.75;;;16.22;69.23
64544;BME280;50936;51.660;5.616;2022-09-01T00:57:15;101741.69;;;16.17;69.58
64544;BME280;50936;51.660;5.616;2022-09-01T00:59:47;101742.16;;;16.11;69.11
64544;BME280;50936;51.660;5.616;2022-09-01T01:02:18;101744.13;;;16.09;70.25
64544;BME280;50936;51.660;5.616;2022-09-01T01:04:45;101750.09;;;16.03;69.95
64544;BME280;50936;51.660;5.616;2022-09-01T01:07:13;101744.13;;;15.98;70.85
64544;BME280;50936;51.660;5.616;2022-09-01T01:09:43;101742.75;;;15.92;71.23
64544;BME280;50936;51.660;5.616;2022-09-01T01:12:12;101747.78;;;15.86;71.73
64544;BME280;50936;51.660;5.616;2022-09-01T01:14:48;101736.38;;;15.81;71.28
64544;BME280;50936;51.660;5.616;2022-09-01T01:17:21;101744.81;;;15.77;71.77
64544;BME280;50936;51.660;5.616;2022-09-01T01:19:50;101736.00;;;15.74;71.96
64544;BME280;50936;51.660;5.616;2022-09-01T01:25:53;101736.56;;;15.66;72.31
64544;BME280;50936;51.660;5.616;2022-09-01T01:28:26;101736.56;;;15.66;72.52
64544;BME280;50936;51.660;5.616;2022-09-01T01:31:04;101738.28;;;15.67;73.11
64544;BME280;50936;51.660;5.616;2022-09-01T01:33:44;101738.28;;;15.67;73.50
64544;BME280;50936;51.660;5.616;2022-09-01T01:36:15;101739.28;;;15.66;73.02
64544;BME280;50936;51.660;5.616;2022-09-01T01:38:50;101736.56;;;15.66;73.23
64544;BME280;50936;51.660;5.616;2022-09-01T01:41:18;101740.25;;;15.65;73.31
64544;BME280;50936;51.660;5.616;2022-09-01T01:43:47;101736.78;;;15.63;73.71
64544;BME280;50936;51.660;5.616;2022-09-01T01:46:16;101744.22;;;15.61;73.86
64544;BME280;50936;51.660;5.616;2022-09-01T01:48:46;101739.00;;;15.58;74.26
64544;BME280;50936;51.660;5.616;2022-09-01T01:51:17;101743.81;;;15.54;74.51
64544;BME280;50936;51.660;5.616;2022-09-01T01:53:52;101736.75;;;15.52;74.62
64544;BME280;50936;51.660;5.616;2022-09-01T01:56:22;101742.31;;;15.50;75.26
64544;BME280;50936;51.660;5.616;2022-09-01T01:58:55;101747.13;;;15.47;75.42
64544;BME280;50936;51.660;5.616;2022-09-01T02:01:27;101746.47;;;15.43;75.63
64544;BME280;50936;51.660;5.616;2022-09-01T02:03:57;101742.16;;;15.40;75.36
64544;BME280;50936;51.660;5.616;2022-09-01T02:06:27;101745.84;;;15.39;75.77
64544;BME280;50936;51.660;5.616;2022-09-01T02:08:56;101747.81;;;15.37;76.06
64544;BME280;50936;51.660;5.616;2022-09-01T02:11:25;101749.78;;;15.35;76.13
64544;BME280;50936;51.660;5.616;2022-09-01T02:13:54;101743.59;;;15.33;76.08
64544;BME280;50936;51.660;5.616;2022-09-01T02:16:24;101739.13;;;15.32;76.27
64544;BME280;50936;51.660;5.616;2022-09-01T02:18:54;101745.69;;;15.30;76.43
64544;BME280;50936;51.660;5.616;2022-09-01T02:21:24;101742.06;;;15.29;76.13
64544;BME280;50936;51.660;5.616;2022-09-01T02:23:56;101748.50;;;15.28;76.72
64544;BME280;50936;51.660;5.616;2022-09-01T02:26:38;101750.47;;;15.26;76.57
64544;BME280;50936;51.660;5.616;2022-09-01T02:29:17;101743.28;;;15.25;76.57
64544;BME280;50936;51.660;5.616;2022-09-01T02:31:49;101746.00;;;15.25;76.71
64544;BME280;50936;51.660;5.616;2022-09-01T02:34:21;101741.56;;;15.24;76.55
64544;BME280;50936;51.660;5.616;2022-09-01T02:36:53;101740.81;;;15.22;76.61
64544;BME280;50936;51.660;5.616;2022-09-01T02:39:26;101739.06;;;15.21;76.81
64544;BME280;50936;51.660;5.616;2022-09-01T02:41:55;101737.19;;;15.21;76.38
64544;BME280;50936;51.660;5.616;2022-09-01T02:44:25;101741.78;;;15.21;77.11
64544;BME280;50936;51.660;5.616;2022-09-01T02:46:53;101734.59;;;15.20;76.85
64544;BME280;50936;51.660;5.616;2022-09-01T02:49:23;101745.47;;;15.20;76.66
64544;BME280;50936;51.660;5.616;2022-09-01T02:51:56;101738.31;;;15.19;76.90
64544;BME280;50936;51.660;5.616;2022-09-01T02:54:30;101734.72;;;15.18;76.90
64544;BME280;50936;51.660;5.616;2022-09-01T02:56:59;101736.56;;;15.18;77.02
64544;BME280;50936;51.660;5.616;2022-09-01T02:59:27;101734.84;;;15.17;76.91
64544;BME280;50936;51.660;5.616;2022-09-01T03:01:59;101735.81;;;15.16;77.05
64544;BME280;50936;51.660;5.616;2022-09-01T03:04:26;101731.59;;;15.12;76.95
64544;BME280;50936;51.660;5.616;2022-09-01T03:07:02;101728.97;;;15.10;76.40
64544;BME280;50936;51.660;5.616;2022-09-01T03:09:29;101722.69;;;15.10;76.74
64544;BME280;50936;51.660;5.616;2022-09-01T03:11:58;101721.94;;;15.08;76.67
64544;BME280;50936;51.660;5.616;2022-09-01T03:14:25;101723.91;;;15.06;76.64
64544;BME280;50936;51.660;5.616;2022-09-01T03:16:52;101720.53;;;15.02;76.62
64544;BME280;50936;51.660;5.616;2022-09-01T03:19:20;101726.19;;;14.99;77.10
64544;BME280;50936;51.660;5.616;2022-09-01T03:21:47;101722.09;;;14.93;77.08
64544;BME280;50936;51.660;5.616;2022-09-01T03:24:18;101722.28;;;14.90;77.36
64544;BME280;50936;51.660;5.616;2022-09-01T03:26:49;101719.03;;;14.85;77.07
64544;BME280;50936;51.660;5.616;2022-09-01T03:29:17;101727.56;;;14.80;76.87
64544;BME280;50936;51.660;5.616;2022-09-01T03:31:45;101725.81;;;14.79;76.96
64544;BME280;50936;51.660;5.616;2022-09-01T03:34:12;101723.44;;;14.75;77.44
64544;BME280;50936;51.660;5.616;2022-09-01T03:36:47;101721.91;;;14.71;77.50
64544;BME280;50936;51.660;5.616;2022-09-01T03:39:25;101722.34;;;14.65;77.19
64544;BME280;50936;51.660;5.616;2022-09-01T03:41:52;101722.56;;;14.61;77.21
64544;BME280;50936;51.660;5.616;2022-09-01T03:44:19;101725.44;;;14.60;77.54
64544;BME280;50936;51.660;5.616;2022-09-01T03:46:46;101725.72;;;14.55;77.27
64544;BME280;50936;51.660;5.616;2022-09-01T03:49:13;101724.00;;;14.54;77.30
64544;BME280;50936;51.660;5.616;2022-09-01T03:51:43;101726.91;;;14.51;77.19
64544;BME280;50936;51.660;5.616;2022-09-01T03:54:11;101724.31;;;14.50;76.81
64544;BME280;50936;51.660;5.616;2022-09-01T03:56:38;101728.88;;;14.49;76.55
64544;BME280;50936;51.660;5.616;2022-09-01T03:59:10;101726.28;;;14.48;76.25
64544;BME280;50936;51.660;5.616;2022-09-01T04:01:44;101720.94;;;14.46;76.91
64544;BME280;50936;51.660;5.616;2022-09-01T04:04:11;101723.00;;;14.42;76.97
64544;BME280;50936;51.660;5.616;2022-09-01T04:06:42;101720.63;;;14.38;76.59
64544;BME280;50936;51.660;5.616;2022-09-01T04:09:12;101716.28;;;14.35;76.50
64544;BME280;50936;51.660;5.616;2022-09-01T04:11:42;101717.28;;;14.34;76.69
64544;BME280;50936;51.660;5.616;2022-09-01T04:14:14;101714.75;;;14.31;76.40
64544;BME280;50936;51.660;5.616;2022-09-01T04:16:43;101720.19;;;14.31;76.14
64544;BME280;50936;51.660;5.616;2022-09-01T04:19:35;101717.59;;;14.30;75.96
64544;BME280;50936;51.660;5.616;2022-09-01T04:22:05;101719.44;;;14.29;75.77
64544;BME280;50936;51.660;5.616;2022-09-01T04:24:40;101716.72;;;14.29;75.68
64544;BME280;50936;51.660;5.616;2022-09-01T04:27:13;101714.97;;;14.28;75.64
64544;BME280;50936;51.660;5.616;2022-09-01T04:29:44;101717.69;;;14.28;75.58
64544;BME280;50936;51.660;5.616;2022-09-01T04:32:11;101721.50;;;14.25;75.57
64544;BME280;50936;51.660;5.616;2022-09-01T04:34:45;101726.94;;;14.25;75.69
64544;BME280;50936;51.660;5.616;2022-09-01T04:37:18;101723.47;;;14.23;75.72
64544;BME280;50936;51.660;5.616;2022-09-01T04:39:57;101727.16;;;14.22;75.87
64544;BME280;50936;51.660;5.616;2022-09-01T04:42:27;101729.09;;;14.20;75.72
64544;BME280;50936;51.660;5.616;2022-09-01T04:45:00;101721.91;;;14.19;76.01
64544;BME280;50936;51.660;5.616;2022-09-01T04:47:37;101725.84;;;14.15;75.88
64544;BME280;50936;51.660;5.616;2022-09-01T04:50:10;101731.28;;;14.15;75.80
64544;BME280;50936;51.660;5.616;2022-09-01T04:52:58;101718.69;;;14.14;75.78
64544;BME280;50936;51.660;5.616;2022-09-01T04:55:31;101722.38;;;14.13;75.67
64544;BME280;50936;51.660;5.616;2022-09-01T04:58:00;101720.66;;;14.12;76.00
64544;BME280;50936;51.660;5.616;2022-09-01T05:00:36;101721.59;;;14.11;76.02
64544;BME280;50936;51.660;5.616;2022-09-01T05:03:03;101724.31;;;14.11;76.48
64544;BME280;50936;51.660;5.616;2022-09-01T05:05:53;101718.13;;;14.09;76.57
64544;BME280;50936;51.660;5.616;2022-09-01T05:08:21;101724.44;;;14.10;76.04
64544;BME280;50936;51.660;5.616;2022-09-01T05:10:53;101723.56;;;14.09;76.47
64544;BME280;50936;51.660;5.616;2022-09-01T05:13:51;101719.09;;;14.08;76.57
64544;BME280;50936;51.660;5.616;2022-09-01T05:16:23;101723.66;;;14.08;76.56
64544;BME280;50936;51.660;5.616;2022-09-01T05:18:55;101732.78;;;14.06;76.35
64544;BME280;50936;51.660;5.616;2022-09-01T05:21:27;101732.69;;;14.08;76.46
64544;BME280;50936;51.660;5.616;2022-09-01T05:23:59;101734.34;;;14.11;76.51
64544;BME280;50936;51.660;5.616;2022-09-01T05:26:30;101728.00;;;14.10;76.50
64544;BME280;50936;51.660;5.616;2022-09-01T05:29:02;101726.09;;;14.12;76.41
64544;BME280;50936;51.660;5.616;2022-09-01T05:31:36;101737.47;;;14.17;76.24
64544;BME280;50936;51.660;5.616;2022-09-01T05:34:04;101736.50;;;14.18;76.17
64544;BME280;50936;51.660;5.616;2022-09-01T05:36:31;101735.09;;;14.25;75.93
64544;BME280;50936;51.660;5.616;2022-09-01T05:39:00;101733.69;;;14.33;75.79
64544;BME280;50936;51.660;5.616;2022-09-01T05:41:28;101743.88;;;14.42;75.35
64544;BME280;50936;51.660;5.616;2022-09-01T05:43:55;101743.44;;;14.48;75.12
64544;BME280;50936;51.660;5.616;2022-09-01T05:46:27;101743.78;;;14.56;74.79
64544;BME280;50936;51.660;5.616;2022-09-01T05:48:57;101746.72;;;14.66;74.28
64544;BME280;50936;51.660;5.616;2022-09-01T05:51:27;101746.91;;;14.76;73.68
64544;BME280;50936;51.660;5.616;2022-09-01T05:54:20;101744.50;;;14.84;73.11
64544;BME280;50936;51.660;5.616;2022-09-01T05:56:56;101747.53;;;14.92;73.18
64544;BME280;50936;51.660;5.616;2022-09-01T05:59:38;101753.28;;;15.00;72.47
64544;BME280;50936;51.660;5.616;2022-09-01T06:02:12;101753.81;;;15.06;72.02
64544;BME280;50936;51.660;5.616;2022-09-01T06:04:39;101747.28;;;15.08;71.67
64544;BME280;50936;51.660;5.616;2022-09-01T06:07:12;101750.09;;;15.07;71.58
64544;BME280;50936;51.660;5.616;2022-09-01T06:09:49;101750.31;;;15.04;71.43
64544;BME280;50936;51.660;5.616;2022-09-01T06:12:21;101750.56;;;15.00;71.34
64544;BME280;50936;51.660;5.616;2022-09-01T06:14:50;101756.22;;;14.97;71.25
64544;BME280;50936;51.660;5.616;2022-09-01T06:17:21;101751.00;;;14.94;71.56
64544;BME280;50936;51.660;5.616;2022-09-01T06:19:58;101751.00;;;14.94;71.35
64544;BME280;50936;51.660;5.616;2022-09-01T06:22:27;101751.00;;;14.94;71.21
64544;BME280;50936;51.660;5.616;2022-09-01T06:24:56;101764.59;;;14.94;71.10
64544;BME280;50936;51.660;5.616;2022-09-01T06:27:32;101758.41;;;14.92;71.26
64544;BME280;50936;51.660;5.616;2022-09-01T06:30:05;101760.16;;;14.93;71.27
64544;BME280;50936;51.660;5.616;2022-09-01T06:32:46;101764.50;;;14.96;71.17
64544;BME280;50936;51.660;5.616;2022-09-01T06:35:15;101761.44;;;15.00;71.43
64544;BME280;50936;51.660;5.616;2022-09-01T06:37:44;101760.13;;;15.06;71.15
64544;BME280;50936;51.660;5.616;2022-09-01T06:40:30;101760.53;;;15.13;71.05
64544;BME280;50936;51.660;5.616;2022-09-01T06:42:58;101763.56;;;15.21;70.81
64544;BME280;50936;51.660;5.616;2022-09-01T06:45:27;101763.97;;;15.28;70.43
64544;BME280;50936;51.660;5.616;2022-09-01T06:47:54;101771.78;;;15.32;70.50
64544;BME280;50936;51.660;5.616;2022-09-01T06:50:26;101768.38;;;15.42;70.48
64544;BME280;50936;51.660;5.616;2022-09-01T06:53:14;101756.66;;;15.52;70.17
64544;BME280;50936;51.660;5.616;2022-09-01T06:56:02;101761.31;;;15.63;69.67
64544;BME280;50936;51.660;5.616;2022-09-01T06:58:29;101767.28;;;15.68;69.60
64544;BME280;50936;51.660;5.616;2022-09-01T07:00:56;101770.06;;;15.80;69.69
64544;BME280;50936;51.660;5.616;2022-09-01T07:03:24;101775.31;;;15.94;69.16
64544;BME280;50936;51.660;5.616;2022-09-01T07:06:11;101777.69;;;16.10;68.75
64544;BME280;50936;51.660;5.616;2022-09-01T07:09:18;101771.91;;;16.26;67.49
64544;BME280;50936;51.660;5.616;2022-09-01T07:12:06;101771.69;;;16.40;66.87
64544;BME280;50936;51.660;5.616;2022-09-01T07:14:51;101782.63;;;16.51;67.19
64544;BME280;50936;51.660;5.616;2022-09-01T07:17:42;101781.13;;;16.70;66.70
64544;BME280;50936;51.660;5.616;2022-09-01T07:20:18;101784.28;;;16.88;66.06
64544;BME280;50936;51.660;5.616;2022-09-01T07:22:50;101774.94;;;17.13;66.03
64544;BME280;50936;51.660;5.616;2022-09-01T07:25:37;101780.84;;;17.41;64.00
64544;BME280;50936;51.660;5.616;2022-09-01T07:28:32;101770.78;;;17.74;63.04
64544;BME280;50936;51.660;5.616;2022-09-01T07:31:04;101782.59;;;18.06;62.54
64544;BME280;50936;51.660;5.616;2022-09-01T07:33:56;101778.22;;;18.46;60.85
64544;BME280;50936;51.660;5.616;2022-09-01T07:36:46;101776.91;;;18.71;60.70
64544;BME280;50936;51.660;5.616;2022-09-01T07:39:36;101778.75;;;19.61;57.01
64544;BME280;50936;51.660;5.616;2022-09-01T07:42:41;101785.34;;;20.66;53.79
64544;BME280;50936;51.660;5.616;2022-09-01T07:45:48;101778.13;;;21.48;51.12
64544;BME280;50936;51.660;5.616;2022-09-01T07:48:27;101783.88;;;22.09;48.37
64544;BME280;50936;51.660;5.616;2022-09-01T07:51:17;101787.19;;;22.65;47.01
64544;BME280;50936;51.660;5.616;2022-09-01T07:54:04;101789.84;;;23.09;46.80
64544;BME280;50936;51.660;5.616;2022-09-01T07:56:32;101784.66;;;23.49;45.74
64544;BME280;50936;51.660;5.616;2022-09-01T07:59:06;101778.44;;;23.55;44.15
64544;BME280;50936;51.660;5.616;2022-09-01T08:02:00;101784.13;;;23.02;44.61
64544;BME280;50936;51.660;5.616;2022-09-01T08:04:32;101782.81;;;22.54;45.58
64544;BME280;50936;51.660;5.616;2022-09-01T08:07:00;101781.13;;;22.09;46.68
64544;BME280;50936;51.660;5.616;2022-09-01T08:09:28;101776.19;;;21.77;47.68
64544;BME280;50936;51.660;5.616;2022-09-01T08:12:06;101782.06;;;21.46;47.93
64544;BME280;50936;51.660;5.616;2022-09-01T08:14:42;101784.09;;;21.16;48.58
64544;BME280;50936;51.660;5.616;2022-09-01T08:17:09;101787.69;;;20.89;49.45
64544;BME280;50936;51.660;5.616;2022-09-01T08:19:59;101791.22;;;20.71;50.36
64544;BME280;50936;51.660;5.616;2022-09-01T08:22:44;101787.78;;;20.60;50.68
64544;BME280;50936;51.660;5.616;2022-09-01T08:25:19;101786.34;;;20.55;51.15
64544;BME280;50936;51.660;5.616;2022-09-01T08:27:51;101789.25;;;20.54;51.05
64544;BME280;50936;51.660;5.616;2022-09-01T08:30:25;101783.34;;;20.49;51.28
64544;BME280;50936;51.660;5.616;2022-09-01T08:32:53;101785.38;;;20.47;51.42
64544;BME280;50936;51.660;5.616;2022-09-01T08:35:21;101785.38;;;20.47;51.62
64544;BME280;50936;51.660;5.616;2022-09-01T08:37:48;101788.69;;;20.50;51.63
64544;BME280;50936;51.660;5.616;2022-09-01T08:40:18;101780.44;;;20.50;52.03
64544;BME280;50936;51.660;5.616;2022-09-01T08:46:23;101779.13;;;20.64;51.83
64544;BME280;50936;51.660;5.616;2022-09-01T08:49:05;101780.81;;;20.75;51.29
64544;BME280;50936;51.660;5.616;2022-09-01T08:54:56;101786.50;;;21.01;50.42
64544;BME280;50936;51.660;5.616;2022-09-01T08:57:39;101785.88;;;21.07;49.97
64544;BME280;50936;51.660;5.616;2022-09-01T09:00:19;101791.50;;;21.15;49.45
64544;BME280;50936;51.660;5.616;2022-09-01T09:03:19;101777.69;;;21.25;48.84
64544;BME280;50936;51.660;5.616;2022-09-01T09:06:09;101780.50;;;21.33;48.60
64544;BME280;50936;51.660;5.616;2022-09-01T09:09:05;101774.81;;;21.45;48.02
64544;BME280;50936;51.660;5.616;2022-09-01T09:11:42;101772.31;;;21.51;48.14
64544;BME280;50936;51.660;5.616;2022-09-01T09:17:03;101764.34;;;21.76;47.16
64544;BME280;50936;51.660;5.616;2022-09-01T09:19:36;101768.53;;;21.88;46.66
64544;BME280;50936;51.660;5.616;2022-09-01T09:22:09;101772.47;;;22.04;45.49
64544;BME280;50936;51.660;5.616;2022-09-01T09:24:52;101761.59;;;22.20;45.71
64544;BME280;50936;51.660;5.616;2022-09-01T09:27:37;101766.97;;;22.48;44.42
64544;BME280;50936;51.660;5.616;2022-09-01T09:30:10;101770.69;;;22.65;43.27
64544;BME280;50936;51.660;5.616;2022-09-01T09:33:01;101768.53;;;22.77;43.33
64544;BME280;50936;51.660;5.616;2022-09-01T09:35:50;101765.56;;;22.78;43.19
64544;BME280;50936;51.660;5.616;2022-09-01T09:38:22;101760.59;;;22.82;42.63
64544;BME280;50936;51.660;5.616;2022-09-01T09:40:55;101766.81;;;22.84;42.88
64544;BME280;50936;51.660;5.616;2022-09-01T09:43:59;101761.03;;;22.95;42.10
64544;BME280;50936;51.660;5.616;2022-09-01T09:46:34;101754.19;;;23.08;41.81
64544;BME280;50936;51.660;5.616;2022-09-01T09:54:56;101743.44;;;23.31;40.38
64544;BME280;50936;51.660;5.616;2022-09-01T09:57:38;101748.78;;;23.40;39.97
64544;BME280;50936;51.660;5.616;2022-09-01T10:00:19;101744.69;;;23.44;39.25
64544;BME280;50936;51.660;5.616;2022-09-01T10:02:54;101743.97;;;23.51;39.24
64544;BME280;50936;51.660;5.616;2022-09-01T10:05:45;101730.91;;;23.69;39.98
64544;BME280;50936;51.660;5.616;2022-09-01T10:10:54;101728.13;;;23.61;38.16
64544;BME280;50936;51.660;5.616;2022-09-01T10:13:26;101732.97;;;23.51;37.87
64544;BME280;50936;51.660;5.616;2022-09-01T10:16:05;101732.97;;;23.51;37.82
64544;BME280;50936;51.660;5.616;2022-09-01T10:18:39;101724.00;;;23.49;38.28
64544;BME280;50936;51.660;5.616;2022-09-01T10:21:12;101718.13;;;23.52;38.38
64544;BME280;50936;51.660;5.616;2022-09-01T10:23:43;101727.13;;;23.70;38.83
64544;BME280;50936;51.660;5.616;2022-09-01T10:26:13;101724.56;;;23.85;37.71
64544;BME280;50936;51.660;5.616;2022-09-01T10:29:17;101732.31;;;23.98;36.67
64544;BME280;50936;51.660;5.616;2022-09-01T10:31:50;101723.69;;;24.01;35.56
64544;BME280;50936;51.660;5.616;2022-09-01T10:34:40;101720.59;;;23.96;36.24
64544;BME280;50936;51.660;5.616;2022-09-01T10:37:10;101721.47;;;23.96;35.56
64544;BME280;50936;51.660;5.616;2022-09-01T10:42:43;101714.38;;;24.02;34.83
64544;BME280;50936;51.660;5.616;2022-09-01T10:45:33;101705.25;;;24.01;34.68
64544;BME280;50936;51.660;5.616;2022-09-01T10:53:46;101708.81;;;24.35;34.26
64544;BME280;50936;51.660;5.616;2022-09-01T10:56:48;101709.81;;;24.42;33.48
64544;BME280;50936;51.660;5.616;2022-09-01T11:02:04;101706.00;;;24.51;33.27
64544;BME280;50936;51.660;5.616;2022-09-01T11:16:39;101692.50;;;24.73;31.52
64544;BME280;50936;51.660;5.616;2022-09-01T11:22:09;101698.59;;;24.91;30.82
64544;BME280;50936;51.660;5.616;2022-09-01T11:27:11;101685.00;;;25.44;30.42
64544;BME280;50936;51.660;5.616;2022-09-01T11:30:02;101693.28;;;25.67;29.69
64544;BME280;50936;51.660;5.616;2022-09-01T11:32:37;101691.78;;;25.80;28.72
64544;BME280;50936;51.660;5.616;2022-09-01T11:35:16;101695.22;;;25.82;29.38
64544;BME280;50936;51.660;5.616;2022-09-01T11:37:51;101681.69;;;25.87;29.21
64544;BME280;50936;51.660;5.616;2022-09-01T11:40:26;101677.88;;;25.88;28.71
64544;BME280;50936;51.660;5.616;2022-09-01T11:43:03;101679.47;;;25.82;27.74
64544;BME280;50936;51.660;5.616;2022-09-01T11:45:57;101668.81;;;25.79;28.24
64544;BME280;50936;51.660;5.616;2022-09-01T11:48:37;101664.69;;;25.90;28.72
64544;BME280;50936;51.660;5.616;2022-09-01T11:51:04;101668.78;;;26.02;27.36
64544;BME280;50936;51.660;5.616;2022-09-01T11:53:31;101668.78;;;26.02;28.03
64544;BME280;50936;51.660;5.616;2022-09-01T11:58:41;101662.03;;;26.20;26.39
64544;BME280;50936;51.660;5.616;2022-09-01T12:01:17;101666.13;;;26.24;25.81
64544;BME280;50936;51.660;5.616;2022-09-01T12:03:50;101658.84;;;26.23;26.42
64544;BME280;50936;51.660;5.616;2022-09-01T12:06:25;101654.28;;;26.30;27.29
64544;BME280;50936;51.660;5.616;2022-09-01T12:09:00;101650.66;;;26.44;26.71
64544;BME280;50936;51.660;5.616;2022-09-01T12:11:32;101649.91;;;26.50;26.68
64544;BME280;50936;51.660;5.616;2022-09-01T12:14:10;101647.50;;;26.47;26.57
64544;BME280;50936;51.660;5.616;2022-09-01T12:16:44;101663.94;;;26.49;26.37
64544;BME280;50936;51.660;5.616;2022-09-01T12:19:32;101651.50;;;26.60;26.02
64544;BME280;50936;51.660;5.616;2022-09-01T12:22:13;101649.44;;;26.62;25.53
64544;BME280;50936;51.660;5.616;2022-09-01T12:24:48;101655.63;;;26.64;25.90
64544;BME280;50936;51.660;5.616;2022-09-01T12:27:20;101649.72;;;26.67;26.12
64544;BME280;50936;51.660;5.616;2022-09-01T12:29:50;101643.00;;;26.76;25.79
64544;BME280;50936;51.660;5.616;2022-09-01T12:32:18;101646.03;;;26.81;25.83
64544;BME280;50936;51.660;5.616;2022-09-01T12:35:01;101650.16;;;26.85;24.85
64544;BME280;50936;51.660;5.616;2022-09-01T12:37:36;101646.81;;;26.75;23.95
64544;BME280;50936;51.660;5.616;2022-09-01T12:40:04;101645.88;;;26.68;24.85
64544;BME280;50936;51.660;5.616;2022-09-01T12:42:33;101638.63;;;26.67;25.02
64544;BME280;50936;51.660;5.616;2022-09-01T12:45:09;101633.47;;;26.64;24.62
64544;BME280;50936;51.660;5.616;2022-09-01T12:52:46;101624.72;;;27.18;25.40
64544;BME280;50936;51.660;5.616;2022-09-01T12:55:37;101632.25;;;27.46;25.15
64544;BME280;50936;51.660;5.616;2022-09-01T12:58:22;101625.63;;;27.69;24.86
64544;BME280;50936;51.660;5.616;2022-09-01T13:01:03;101628.97;;;27.64;25.03
64544;BME280;50936;51.660;5.616;2022-09-01T13:04:05;101624.31;;;27.64;24.79
64544;BME280;50936;51.660;5.616;2022-09-01T13:06:52;101623.44;;;27.64;24.77
64544;BME280;50936;51.660;5.616;2022-09-01T13:09:20;101621.09;;;27.68;24.46
64544;BME280;50936;51.660;5.616;2022-09-01T13:11:48;101618.34;;;27.68;24.28
64544;BME280;50936;51.660;5.616;2022-09-01T13:14:32;101617.47;;;27.67;23.99
64544;BME280;50936;51.660;5.616;2022-09-01T13:16:59;101615.97;;;27.64;24.17
64544;BME280;50936;51.660;5.616;2022-09-01T13:19:26;101612.03;;;27.52;24.37
64544;BME280;50936;51.660;5.616;2022-09-01T13:21:56;101609.31;;;27.59;25.04
64544;BME280;50936;51.660;5.616;2022-09-01T13:24:23;101603.41;;;27.69;24.40
64544;BME280;50936;51.660;5.616;2022-09-01T13:26:56;101607.75;;;27.78;24.36
64544;BME280;50936;51.660;5.616;2022-09-01T13:29:44;101598.84;;;27.89;23.84
64544;BME280;50936;51.660;5.616;2022-09-01T13:32:12;101603.84;;;27.94;24.17
64544;BME280;50936;51.660;5.616;2022-09-01T13:34:46;101603.66;;;27.95;24.44
64544;BME280;50936;51.660;5.616;2022-09-01T13:37:20;101596.44;;;28.08;23.92
64544;BME280;50936;51.660;5.616;2022-09-01T13:39:48;101596.94;;;28.18;23.38
64544;BME280;50936;51.660;5.616;2022-09-01T13:42:16;101596.59;;;28.34;23.50
64544;BME280;50936;51.660;5.616;2022-09-01T13:44:43;101587.53;;;28.54;22.45
64544;BME280;50936;51.660;5.616;2022-09-01T13:47:11;101590.34;;;28.67;21.90
64544;BME280;50936;51.660;5.616;2022-09-01T13:49:55;101586.72;;;28.73;22.40
64544;BME280;50936;51.660;5.616;2022-09-01T13:52:42;101586.56;;;28.82;22.61
64544;BME280;50936;51.660;5.616;2022-09-01T13:55:14;101582.28;;;28.86;23.24
64544;BME280;50936;51.660;5.616;2022-09-01T13:57:46;101581.28;;;29.27;22.95
64544;BME280;50936;51.660;5.616;2022-09-01T14:00:17;101581.91;;;29.69;22.83
64544;BME280;50936;51.660;5.616;2022-09-01T14:02:52;101579.28;;;30.14;21.60
64544;BME280;50936;51.660;5.616;2022-09-01T14:05:30;101567.63;;;30.50;21.19
64544;BME280;50936;51.660;5.616;2022-09-01T14:08:00;101570.19;;;30.52;20.84
64544;BME280;50936;51.660;5.616;2022-09-01T14:10:29;101566.78;;;30.50;20.70
64544;BME280;50936;51.660;5.616;2022-09-01T14:12:58;101565.47;;;30.46;21.07
64544;BME280;50936;51.660;5.616;2022-09-01T14:15:26;101566.81;;;30.37;21.12
64544;BME280;50936;51.660;5.616;2022-09-01T14:17:55;101572.84;;;30.34;21.25
64544;BME280;50936;51.660;5.616;2022-09-01T14:20:29;101574.53;;;30.35;22.16
64544;BME280;50936;51.660;5.616;2022-09-01T14:23:03;101559.34;;;30.76;21.00
64544;BME280;50936;51.660;5.616;2022-09-01T14:25:32;101554.91;;;31.00;21.61